Flight Track Log - Related Links

Times and Time Zones

All times are in EDT time to prevent confusion due to time zone crossing. See the QXE2056 flight status page for this flight to view local times or setup timezone preferences in your user account.

Time Position Orientation Groundspeed Altitude Reporting Facility
EDT Latitude Longitude Course Direction KTS MPH feet Rate Location/Type
Fri 11:41:00 PM 46.0965 -122.6693 352° North  Level FlightAware Approximate
Fri 11:42:00 PM 46.1698 -122.6838 354° North  Level FlightAware Approximate
Fri 11:43:00 PM 46.2434 -122.6943 354° North  Level FlightAware Approximate
Fri 11:44:00 PM 46.3153 -122.7160 341° North  Level FlightAware Approximate
Fri 11:45:00 PM 46.3892 -122.7199 358° North  Level FlightAware Approximate
Fri 11:46:00 PM 46.4632 -122.7233 358° North  Level FlightAware Approximate
Fri 11:47:00 PM 46.5371 -122.7267 358° North  Level FlightAware Approximate
Fri 11:48:00 PM 46.6111 -122.7300 358° North  Level FlightAware Approximate
Fri 11:49:00 PM 46.6850 -122.7333 North  Level FlightAware Approximate
Fri 11:50:00 PM 46.7590 -122.7333 360° North  Level FlightAware Approximate
Fri 11:51:00 PM 46.8200 -122.6844 42° Northeast  Level FlightAware Approximate
Fri 11:52:00 PM 46.8782 -122.6180 42° Northeast  Level FlightAware Approximate
Fri 11:53:00 PM 46.9319 -122.5514 34° Northeast  Level FlightAware Approximate
Fri 11:54:00 PM 46.9986 -122.5174 19° North  Level FlightAware Approximate
Fri 11:55:00 PM 47.0680 -122.4993 19° North  Level FlightAware Approximate
Fri 11:56:00 PM 47.1365 -122.4761 North  Level FlightAware Approximate
Fri 11:57:00 PM 47.2066 -122.4667 North  Level FlightAware Approximate
Fri 11:58:00 PM 47.2770 -122.4591 North  Level FlightAware Approximate
Fri 11:59:00 PM 47.3473 -122.4503 North  Level FlightAware Approximate
Sat 12:00:00 AM 47.4179 -122.4500 North  Level FlightAware Approximate
Sat 12:01:00 AM 47.4885 -122.4500 North  Level FlightAware Approximate
Sat 12:02:00 AM 47.4760 -122.3711 132° Southeast  Level FlightAware Approximate
Sat 12:03:00 AM 47.4499 -122.3118 132° Southeast  Level Estimated
Sat 12:04:00 AM 47.4499 -122.3118 154° Southeast  Level Estimated
Sat 12:05:00 AM 47.4499 -122.3118 132° Southeast  Level Estimated
Sat 12:06:00 AM 47.4499 -122.3118 154° Southeast  Level Estimated
Sat 12:07:00 AM 47.4499 -122.3118 132° Southeast  Level Estimated
Sat 12:08:00 AM 47.4499 -122.3118 154° Southeast  Level Estimated
Sat 12:09:00 AM 47.4499 -122.3118 180° South  Level Estimated
Sat 12:10:00 AM 47.4499 -122.3118 North  Level Estimated
Sat 12:11:00 AM 47.4499 -122.3118 180° South  Level Estimated
Sat 12:12:00 AM 47.4499 -122.3118 34° Northeast  Level Estimated
Sat 12:13:00 AM 47.4499 -122.3118 34° Northeast  Level Estimated
Sat 12:14:00 AM 47.4499 -122.3118 34° Northeast  Level Estimated
Sat 12:15:00 AM 47.4499 -122.3118 34° Northeast  Level Estimated
Sat 12:16:00 AM 47.4499 -122.3118 34° Northeast  Level Estimated
Sat 12:17:00 AM 47.4499 -122.3118 34° Northeast  Level Estimated
Sat 12:18:00 AM 47.4499 -122.3118 34° Northeast  Level Estimated
Sat 12:19:00 AM 47.4499 -122.3118 34° Northeast  Level Estimated

Login

Don't have an account? Register now (free) for customized features, flight alerts, and more!